createdAt,value
2022-12-25T00:00:21.151Z,87.10
2022-12-25T00:03:23.164Z,87.53
2022-12-25T00:06:24.920Z,87.67
2022-12-25T00:09:26.629Z,88.25
2022-12-25T00:12:28.311Z,87.59
2022-12-25T00:15:29.990Z,87.61
2022-12-25T00:18:31.620Z,86.83
2022-12-25T00:21:33.371Z,86.43
2022-12-25T00:24:35.112Z,86.46
2022-12-25T00:27:37.949Z,86.18
2022-12-25T00:30:41.014Z,86.86
2022-12-25T00:33:45.052Z,86.14
2022-12-25T00:36:46.671Z,85.07
2022-12-25T00:39:49.502Z,85.18
2022-12-25T00:42:51.308Z,85.21
2022-12-25T00:46:02.156Z,85.63
2022-12-25T00:49:03.985Z,85.63
2022-12-25T00:52:05.817Z,85.75
2022-12-25T00:55:07.728Z,85.65
2022-12-25T00:58:09.388Z,86.11
2022-12-25T01:01:11.901Z,85.60
2022-12-25T01:04:13.787Z,85.89
2022-12-25T01:07:16.957Z,85.55
2022-12-25T01:10:24.397Z,85.20
2022-12-25T01:13:27.488Z,85.02
2022-12-25T01:16:29.885Z,85.12
2022-12-25T01:19:31.653Z,85.58
2022-12-25T01:22:33.335Z,85.84
2022-12-25T01:25:35.055Z,85.47
2022-12-25T01:28:37.595Z,85.54
2022-12-25T01:31:39.300Z,85.41
2022-12-25T01:34:41.198Z,85.75
2022-12-25T01:37:42.897Z,85.83
2022-12-25T01:40:44.668Z,85.77
2022-12-25T01:44:04.720Z,85.61
2022-12-25T01:47:07.376Z,85.32
2022-12-25T01:50:09.509Z,84.98
2022-12-25T01:53:11.943Z,84.70
2022-12-25T01:56:13.679Z,84.92
2022-12-25T01:59:19.314Z,84.82
2022-12-25T02:02:21.453Z,84.33
2022-12-25T02:05:27.991Z,84.51
2022-12-25T02:08:30.387Z,84.07
2022-12-25T02:11:50.282Z,83.92
2022-12-25T02:14:59.648Z,84.57
2022-12-25T02:18:15.870Z,84.27
2022-12-25T02:21:29.817Z,85.07
2022-12-25T02:25:08.818Z,84.56
2022-12-25T02:28:36.437Z,84.74
2022-12-25T02:31:48.277Z,84.87
2022-12-25T02:35:03.693Z,84.55
2022-12-25T02:38:12.904Z,84.60
2022-12-25T02:41:16.562Z,84.77
2022-12-25T02:44:39.627Z,84.84
2022-12-25T02:47:59.859Z,84.45
2022-12-25T02:51:22.581Z,85.20
2022-12-25T02:54:52.358Z,85.12
2022-12-25T02:58:16.587Z,84.70
2022-12-25T03:01:39.386Z,84.04
2022-12-25T03:05:01.902Z,83.95
2022-12-25T03:08:08.733Z,83.64
2022-12-25T03:11:31.070Z,83.62
2022-12-25T03:14:51.526Z,83.20
2022-12-25T03:17:53.771Z,83.33
2022-12-25T03:21:14.584Z,83.79
2022-12-25T03:24:34.762Z,83.49
2022-12-25T03:27:37.742Z,83.46
2022-12-25T03:31:13.400Z,83.33
2022-12-25T03:34:49.612Z,83.60
2022-12-25T03:38:09.988Z,83.97
2022-12-25T03:41:59.507Z,84.29
2022-12-25T03:45:30.845Z,83.99
2022-12-25T03:48:54.239Z,84.10
2022-12-25T03:52:17.731Z,84.08
2022-12-25T03:55:38.640Z,84.39
2022-12-25T03:59:09.423Z,84.32
2022-12-25T04:02:29.846Z,84.36
2022-12-25T04:05:50.461Z,84.75
2022-12-25T04:09:10.854Z,84.27
2022-12-25T04:12:31.106Z,83.90
2022-12-25T04:15:51.395Z,84.36
2022-12-25T04:19:11.613Z,84.42
2022-12-25T04:22:31.915Z,84.17
2022-12-25T04:25:52.195Z,84.33
2022-12-25T04:29:12.555Z,84.07
2022-12-25T04:32:32.739Z,83.85
2022-12-25T04:35:53.012Z,83.66
2022-12-25T04:38:54.826Z,83.70
2022-12-25T04:41:56.783Z,83.78
2022-12-25T04:44:58.468Z,83.77
2022-12-25T04:48:00.809Z,83.93
2022-12-25T04:51:20.841Z,83.95
2022-12-25T04:54:22.560Z,84.32
2022-12-25T04:57:24.232Z,84.53
2022-12-25T05:00:25.955Z,84.78
2022-12-25T05:03:28.289Z,84.90
2022-12-25T05:06:30.102Z,85.35
2022-12-25T05:09:31.776Z,86.32
2022-12-25T05:12:33.524Z,86.08
2022-12-25T05:15:35.201Z,85.97
2022-12-25T05:18:36.922Z,86.18
2022-12-25T05:21:38.605Z,85.87
2022-12-25T05:24:40.337Z,85.58
2022-12-25T05:27:41.984Z,85.32
2022-12-25T05:30:43.717Z,84.93
2022-12-25T05:33:45.668Z,85.26
2022-12-25T05:36:47.328Z,85.72
2022-12-25T05:39:49.258Z,85.40
2022-12-25T05:42:54.000Z,85.62
2022-12-25T05:45:55.687Z,85.80
2022-12-25T05:48:57.377Z,85.27
2022-12-25T05:51:59.016Z,85.95
2022-12-25T05:55:00.849Z,86.09
2022-12-25T05:58:02.997Z,86.14
2022-12-25T06:01:14.807Z,86.17
2022-12-25T06:04:16.711Z,85.83
2022-12-25T06:07:18.471Z,86.16
2022-12-25T06:10:20.402Z,86.00
2022-12-25T06:13:22.068Z,85.97
2022-12-25T06:16:23.743Z,85.87
2022-12-25T06:19:25.492Z,86.37
2022-12-25T06:22:31.489Z,86.47
2022-12-25T06:25:33.396Z,86.14
2022-12-25T06:28:35.401Z,85.92
2022-12-25T06:31:37.110Z,85.68
2022-12-25T06:34:38.787Z,86.33
2022-12-25T06:37:40.410Z,86.40
2022-12-25T06:40:42.091Z,87.01
2022-12-25T06:43:47.494Z,87.00
2022-12-25T06:46:49.229Z,87.25
2022-12-25T06:49:50.848Z,87.32
2022-12-25T06:52:52.467Z,86.73
2022-12-25T06:55:54.107Z,86.41
2022-12-25T06:58:58.540Z,86.22
2022-12-25T07:02:00.422Z,86.85
2022-12-25T07:05:04.009Z,86.18
2022-12-25T07:08:05.743Z,85.82
2022-12-25T07:11:07.859Z,85.86
2022-12-25T07:14:23.256Z,85.91
2022-12-25T07:17:25.679Z,85.44
2022-12-25T07:20:27.615Z,85.80
2022-12-25T07:23:29.309Z,85.72
2022-12-25T07:26:31.236Z,84.77
2022-12-25T07:29:32.896Z,85.21
2022-12-25T07:32:34.557Z,84.60
2022-12-25T07:35:37.191Z,84.18
2022-12-25T07:38:38.908Z,83.41
2022-12-25T07:41:40.617Z,82.95
2022-12-25T07:44:42.354Z,82.17
2022-12-25T07:47:44.437Z,81.00
2022-12-25T07:50:46.125Z,78.97
2022-12-25T07:53:47.952Z,76.83
2022-12-25T07:56:53.386Z,74.59
2022-12-25T07:59:55.712Z,73.82
2022-12-25T08:02:57.449Z,73.02
2022-12-25T08:06:06.082Z,71.18
2022-12-25T08:09:11.191Z,70.94
2022-12-25T08:12:13.129Z,71.19
2022-12-25T08:15:14.940Z,73.18
2022-12-25T08:18:16.638Z,73.22
2022-12-25T08:21:18.265Z,73.08
2022-12-25T08:24:20.049Z,73.80
2022-12-25T08:27:21.744Z,75.09
2022-12-25T08:30:23.418Z,75.67
2022-12-25T08:33:25.428Z,76.24
2022-12-25T08:36:27.504Z,76.60
2022-12-25T08:39:29.264Z,76.96
2022-12-25T08:42:30.973Z,77.53
2022-12-25T08:45:35.253Z,76.84
2022-12-25T08:48:37.639Z,75.79
2022-12-25T08:51:39.349Z,75.82
2022-12-25T08:54:41.073Z,76.22
2022-12-25T08:57:43.023Z,74.26
2022-12-25T09:00:44.665Z,73.93
2022-12-25T09:03:46.561Z,73.74
2022-12-25T09:06:48.396Z,74.56
2022-12-25T09:09:50.053Z,73.20
2022-12-25T09:12:51.857Z,69.66
2022-12-25T09:15:53.545Z,67.82
2022-12-25T09:18:56.831Z,68.46
2022-12-25T09:21:58.663Z,69.05
2022-12-25T09:25:00.498Z,68.01
2022-12-25T09:28:02.199Z,66.69
2022-12-25T09:31:04.415Z,64.68
2022-12-25T09:34:06.483Z,62.42
2022-12-25T09:37:08.133Z,60.71
2022-12-25T09:40:18.673Z,57.33
2022-12-25T09:43:21.705Z,54.97
2022-12-25T09:46:33.078Z,54.38
2022-12-25T09:49:54.316Z,53.36
2022-12-25T09:53:03.105Z,52.02
2022-12-25T09:56:11.465Z,53.33
2022-12-25T09:59:24.197Z,54.41
2022-12-25T10:02:41.122Z,54.03
2022-12-25T10:06:20.762Z,53.08
2022-12-25T10:09:44.225Z,52.80
2022-12-25T10:13:03.998Z,50.62
2022-12-25T10:16:21.507Z,49.22
2022-12-25T10:19:28.142Z,49.09
2022-12-25T10:22:29.766Z,47.35
2022-12-25T10:25:32.492Z,44.77
2022-12-25T10:28:42.781Z,42.15
2022-12-25T10:31:46.682Z,41.65
2022-12-25T10:34:48.929Z,41.30
2022-12-25T10:38:17.809Z,39.23
2022-12-25T10:41:53.442Z,38.13
2022-12-25T10:44:59.299Z,39.45
2022-12-25T10:48:07.767Z,37.59
2022-12-25T10:51:09.984Z,38.71
2022-12-25T10:54:21.404Z,38.63
2022-12-25T10:57:25.455Z,38.69
2022-12-25T11:00:30.263Z,37.84
2022-12-25T11:03:35.155Z,38.53
2022-12-25T11:06:36.963Z,38.78
2022-12-25T11:09:39.700Z,37.99
2022-12-25T11:12:44.724Z,38.46
2022-12-25T11:15:49.239Z,37.42
2022-12-25T11:18:54.213Z,36.70
2022-12-25T11:21:58.421Z,36.82
2022-12-25T11:25:12.382Z,36.16
2022-12-25T11:28:14.176Z,36.92
2022-12-25T11:31:43.303Z,33.69
2022-12-25T11:34:47.508Z,34.61
2022-12-25T11:37:51.974Z,33.35
2022-12-25T11:41:00.606Z,33.57
2022-12-25T11:44:08.106Z,31.72
2022-12-25T11:47:29.236Z,31.03
2022-12-25T11:50:35.514Z,32.28
2022-12-25T11:53:51.679Z,33.40
2022-12-25T11:56:55.904Z,35.85
2022-12-25T12:00:04.283Z,35.42
2022-12-25T12:03:12.061Z,36.76
2022-12-25T12:06:23.223Z,35.94
2022-12-25T12:09:36.708Z,34.86
2022-12-25T12:12:51.202Z,37.63
2022-12-25T12:15:53.005Z,45.19
2022-12-25T12:18:55.998Z,47.95
2022-12-25T12:22:01.125Z,46.37
2022-12-25T12:25:06.782Z,50.00
2022-12-25T12:28:26.545Z,53.39
2022-12-25T12:31:42.819Z,55.82
2022-12-25T12:34:50.122Z,58.16
2022-12-25T12:38:02.785Z,60.89
2022-12-25T12:41:07.210Z,62.31
2022-12-25T12:44:12.441Z,63.65
2022-12-25T12:47:48.135Z,64.69
2022-12-25T12:50:49.812Z,66.02
2022-12-25T12:53:51.590Z,66.89
2022-12-25T12:57:06.228Z,66.53
2022-12-25T13:00:17.996Z,68.23
2022-12-25T13:03:40.838Z,69.03
2022-12-25T13:06:54.283Z,69.56
2022-12-25T13:09:58.677Z,70.59
2022-12-25T13:13:05.029Z,70.77
2022-12-25T13:16:13.040Z,71.36
2022-12-25T13:19:19.427Z,70.50
2022-12-25T13:22:30.109Z,71.73
2022-12-25T13:25:32.018Z,71.11
2022-12-25T13:28:36.265Z,71.54
2022-12-25T13:31:41.116Z,71.77
2022-12-25T13:34:43.144Z,72.18
2022-12-25T13:37:45.506Z,72.56
2022-12-25T13:41:11.400Z,72.76
2022-12-25T13:44:29.964Z,73.19
2022-12-25T13:47:34.134Z,71.96
2022-12-25T13:50:36.310Z,72.91
2022-12-25T13:53:37.936Z,73.13
2022-12-25T13:56:51.741Z,73.53
2022-12-25T13:59:53.887Z,73.57
2022-12-25T14:02:55.721Z,71.96
2022-12-25T14:05:59.969Z,70.79
2022-12-25T14:09:02.069Z,69.71
2022-12-25T14:12:04.113Z,69.13
2022-12-25T14:15:06.877Z,68.38
2022-12-25T14:18:15.243Z,68.23
2022-12-25T14:21:34.937Z,68.60
2022-12-25T14:24:38.132Z,69.81
2022-12-25T14:27:39.879Z,70.10
2022-12-25T14:30:42.734Z,70.73
2022-12-25T14:33:45.709Z,71.09
2022-12-25T14:36:48.376Z,71.26
2022-12-25T14:39:59.898Z,71.47
2022-12-25T14:43:06.551Z,71.49
2022-12-25T14:46:08.987Z,73.50
2022-12-25T14:49:25.010Z,73.21
2022-12-25T14:52:52.822Z,73.88
2022-12-25T14:55:55.258Z,75.23
2022-12-25T14:58:59.680Z,74.94
2022-12-25T15:02:01.601Z,75.35
2022-12-25T15:05:03.577Z,75.52
2022-12-25T15:08:25.527Z,75.94
2022-12-25T15:11:28.281Z,76.62
2022-12-25T15:14:31.485Z,76.58
2022-12-25T15:17:36.184Z,77.23
2022-12-25T15:20:37.914Z,77.63
2022-12-25T15:23:39.691Z,77.47
2022-12-25T15:26:41.943Z,77.62
2022-12-25T15:30:09.097Z,77.94
2022-12-25T15:33:17.046Z,78.02
2022-12-25T15:36:18.923Z,78.00
2022-12-25T15:39:20.563Z,78.37
2022-12-25T15:42:25.276Z,78.55
2022-12-25T15:45:29.173Z,78.65
2022-12-25T15:48:30.853Z,78.67
2022-12-25T15:51:33.356Z,79.05
2022-12-25T15:54:35.416Z,79.88
2022-12-25T15:57:39.191Z,80.35
2022-12-25T16:00:40.860Z,79.29
2022-12-25T16:03:43.321Z,79.50
2022-12-25T16:06:45.484Z,79.63
2022-12-25T16:09:47.428Z,81.28
2022-12-25T16:12:49.100Z,80.87
2022-12-25T16:15:50.767Z,81.50
2022-12-25T16:18:52.468Z,82.43
2022-12-25T16:21:54.493Z,83.43
2022-12-25T16:24:57.044Z,82.23
2022-12-25T16:27:58.769Z,83.27
2022-12-25T16:31:00.705Z,84.36
2022-12-25T16:34:03.112Z,85.00
2022-12-25T16:37:05.374Z,86.18
2022-12-25T16:40:09.606Z,86.08
2022-12-25T16:43:11.361Z,86.10
2022-12-25T16:46:15.644Z,86.27
2022-12-25T16:49:17.320Z,86.30
2022-12-25T16:52:18.971Z,87.89
2022-12-25T16:55:26.319Z,85.93
2022-12-25T16:58:31.782Z,85.93
2022-12-25T17:01:33.645Z,85.16
2022-12-25T17:04:35.466Z,86.06
2022-12-25T17:07:37.666Z,86.50
2022-12-25T17:10:39.431Z,86.75
2022-12-25T17:13:41.153Z,86.71
2022-12-25T17:16:42.868Z,86.75
2022-12-25T17:19:44.613Z,88.30
2022-12-25T17:22:48.899Z,87.53
2022-12-25T17:25:50.599Z,86.53
2022-12-25T17:28:56.236Z,87.22
2022-12-25T17:31:58.000Z,87.96
2022-12-25T17:34:59.707Z,87.25
2022-12-25T17:38:01.367Z,87.99
2022-12-25T17:41:06.291Z,88.41
2022-12-25T17:44:11.913Z,88.45
2022-12-25T17:47:13.563Z,87.93
2022-12-25T17:50:15.309Z,88.40
2022-12-25T17:53:17.008Z,87.46
2022-12-25T17:56:19.817Z,86.78
2022-12-25T17:59:28.273Z,87.95
2022-12-25T18:02:30.894Z,88.34
2022-12-25T18:05:36.287Z,88.56
2022-12-25T18:08:39.860Z,88.62
2022-12-25T18:11:43.338Z,88.83
2022-12-25T18:14:45.044Z,88.13
2022-12-25T18:17:46.738Z,88.50
2022-12-25T18:20:48.416Z,88.19
2022-12-25T18:23:50.826Z,88.71
2022-12-25T18:26:52.594Z,88.34
2022-12-25T18:29:54.294Z,88.66
2022-12-25T18:32:55.989Z,88.13
2022-12-25T18:35:59.624Z,88.13
2022-12-25T18:39:03.241Z,87.94
2022-12-25T18:42:23.683Z,87.46
2022-12-25T18:45:25.449Z,87.09
2022-12-25T18:48:27.425Z,86.17
2022-12-25T18:51:34.960Z,85.68
2022-12-25T18:54:38.657Z,86.56
2022-12-25T18:57:40.896Z,85.68
2022-12-25T19:00:42.565Z,86.24
2022-12-25T19:03:45.794Z,85.39
2022-12-25T19:06:49.252Z,85.45
2022-12-25T19:09:52.199Z,85.64
2022-12-25T19:12:54.036Z,85.69
2022-12-25T19:15:58.945Z,86.03
2022-12-25T19:19:01.415Z,86.87
2022-12-25T19:22:03.241Z,85.97
2022-12-25T19:25:05.464Z,86.53
2022-12-25T19:28:07.136Z,86.96
2022-12-25T19:31:09.755Z,87.13
2022-12-25T19:34:11.708Z,87.35
2022-12-25T19:37:15.041Z,87.56
2022-12-25T19:40:16.923Z,87.96
2022-12-25T19:43:19.025Z,87.49
2022-12-25T19:46:26.029Z,88.19
2022-12-25T19:49:28.025Z,87.55
2022-12-25T19:52:29.716Z,87.79
2022-12-25T19:55:32.304Z,87.58
2022-12-25T19:58:34.065Z,87.99
2022-12-25T20:01:35.858Z,87.62
2022-12-25T20:04:37.634Z,88.51
2022-12-25T20:07:39.390Z,88.58
2022-12-25T20:10:44.706Z,88.07
2022-12-25T20:13:46.500Z,88.63
2022-12-25T20:16:48.360Z,88.42
2022-12-25T20:19:50.067Z,87.84
2022-12-25T20:22:51.888Z,87.99
2022-12-25T20:25:54.069Z,87.77
2022-12-25T20:28:56.570Z,88.07
2022-12-25T20:31:58.306Z,87.23
2022-12-25T20:35:00.108Z,87.63
2022-12-25T20:38:02.066Z,87.83
2022-12-25T20:44:28.900Z,87.84
2022-12-25T20:47:30.622Z,86.78
2022-12-25T20:50:32.330Z,86.37
2022-12-25T20:53:34.625Z,86.94
2022-12-25T20:56:37.712Z,86.39
2022-12-25T20:59:40.233Z,87.22
2022-12-25T21:02:43.201Z,87.98
2022-12-25T21:05:54.872Z,88.10
2022-12-25T21:08:56.889Z,87.73
2022-12-25T21:11:58.659Z,87.56
2022-12-25T21:15:00.746Z,88.19
2022-12-25T21:18:03.725Z,88.21
2022-12-25T21:21:07.453Z,88.73
2022-12-25T21:24:10.148Z,88.58
2022-12-25T21:27:12.551Z,88.81
2022-12-25T21:30:16.001Z,89.60
2022-12-25T21:33:36.270Z,89.15
2022-12-25T21:36:37.956Z,89.49
2022-12-25T21:39:39.717Z,89.24
2022-12-25T21:42:41.392Z,89.68
2022-12-25T21:45:43.144Z,90.03
2022-12-25T21:48:44.959Z,90.12
2022-12-25T21:52:05.262Z,90.03
2022-12-25T21:55:07.399Z,89.89
2022-12-25T21:58:09.061Z,89.65
2022-12-25T22:01:11.664Z,89.54
2022-12-25T22:04:15.492Z,89.57
2022-12-25T22:07:17.333Z,89.85
2022-12-25T22:10:19.059Z,89.84
2022-12-25T22:13:39.272Z,89.35
2022-12-25T22:17:00.006Z,89.37
2022-12-25T22:20:01.893Z,89.57
2022-12-25T22:23:08.078Z,89.60
2022-12-25T22:26:09.794Z,89.23
2022-12-25T22:29:11.488Z,89.02
2022-12-25T22:32:14.509Z,88.66
2022-12-25T22:35:16.716Z,88.72
2022-12-25T22:38:18.410Z,88.83
2022-12-25T22:41:20.048Z,87.48
2022-12-25T22:44:23.592Z,87.72
2022-12-25T22:47:25.297Z,86.59
2022-12-25T22:50:26.955Z,86.15
2022-12-25T22:53:28.592Z,85.87
2022-12-25T22:56:30.317Z,85.46
2022-12-25T22:59:32.918Z,85.92
2022-12-25T23:02:35.280Z,85.68
2022-12-25T23:05:37.106Z,85.10
2022-12-25T23:08:39.052Z,85.44
2022-12-25T23:11:41.008Z,86.38
2022-12-25T23:14:42.692Z,86.25
2022-12-25T23:18:03.271Z,85.66
2022-12-25T23:21:23.481Z,84.67
2022-12-25T23:24:43.703Z,84.75
2022-12-25T23:27:45.967Z,84.15
2022-12-25T23:30:47.632Z,84.71
2022-12-25T23:33:49.345Z,85.08
2022-12-25T23:36:51.019Z,84.67
2022-12-25T23:39:53.026Z,84.58
2022-12-25T23:42:54.697Z,84.82
2022-12-25T23:45:56.375Z,84.70
2022-12-25T23:48:58.150Z,85.26
2022-12-25T23:52:00.104Z,84.88
2022-12-25T23:55:01.810Z,84.47
2022-12-25T23:58:03.972Z,84.76
